sensor_id;sensor_type;location;lat;lon;timestamp;pressure;altitude;pressure_sealevel;temperature;humidity
75617;BME280;64200;55.426;37.758;2023-12-20T00:01:37;97621.84;;;4.62;83.36
75617;BME280;64200;55.426;37.758;2023-12-20T00:06:38;97625.81;;;4.46;83.93
75617;BME280;64200;55.426;37.758;2023-12-20T00:11:38;97605.81;;;4.51;83.90
75617;BME280;64200;55.426;37.758;2023-12-20T00:16:39;97611.06;;;4.34;84.91
75617;BME280;64200;55.426;37.758;2023-12-20T00:21:39;97592.03;;;4.51;84.82
75617;BME280;64200;55.426;37.758;2023-12-20T00:26:40;97624.19;;;4.54;83.86
75617;BME280;64200;55.426;37.758;2023-12-20T00:31:40;97612.59;;;4.50;84.07
75617;BME280;64200;55.426;37.758;2023-12-20T00:36:40;97614.69;;;4.40;84.98
75617;BME280;64200;55.426;37.758;2023-12-20T00:41:41;97624.97;;;4.40;84.80
75617;BME280;64200;55.426;37.758;2023-12-20T00:46:41;97631.13;;;4.35;85.74
75617;BME280;64200;55.426;37.758;2023-12-20T00:51:42;97643.97;;;4.38;85.65
75617;BME280;64200;55.426;37.758;2023-12-20T00:56:42;97627.06;;;4.45;86.21
75617;BME280;64200;55.426;37.758;2023-12-20T01:01:43;97625.94;;;4.52;84.75
75617;BME280;64200;55.426;37.758;2023-12-20T01:06:43;97627.44;;;4.53;85.06
75617;BME280;64200;55.426;37.758;2023-12-20T01:11:44;97621.72;;;4.42;84.62
75617;BME280;64200;55.426;37.758;2023-12-20T01:16:47;97633.78;;;4.29;85.38
75617;BME280;64200;55.426;37.758;2023-12-20T01:21:47;97607.72;;;4.30;84.88
75617;BME280;64200;55.426;37.758;2023-12-20T01:26:48;97598.59;;;4.39;84.16
75617;BME280;64200;55.426;37.758;2023-12-20T01:31:48;97587.06;;;4.26;84.24
75617;BME280;64200;55.426;37.758;2023-12-20T01:36:49;97596.88;;;4.42;83.64
75617;BME280;64200;55.426;37.758;2023-12-20T01:41:49;97600.13;;;4.55;83.57
75617;BME280;64200;55.426;37.758;2023-12-20T01:46:50;97603.47;;;4.59;83.58
75617;BME280;64200;55.426;37.758;2023-12-20T01:51:50;97580.22;;;4.66;83.06
75617;BME280;64200;55.426;37.758;2023-12-20T01:56:51;97587.47;;;4.93;82.71
75617;BME280;64200;55.426;37.758;2023-12-20T02:01:51;97576.41;;;4.78;82.42
75617;BME280;64200;55.426;37.758;2023-12-20T02:06:52;97568.31;;;4.60;83.61
75617;BME280;64200;55.426;37.758;2023-12-20T02:11:54;97564.72;;;4.53;83.94
75617;BME280;64200;55.426;37.758;2023-12-20T02:16:54;97563.19;;;4.67;84.16
75617;BME280;64200;55.426;37.758;2023-12-20T02:22:10;97544.72;;;4.44;84.51
75617;BME280;64200;55.426;37.758;2023-12-20T02:27:11;97571.94;;;4.51;84.46
75617;BME280;64200;55.426;37.758;2023-12-20T02:32:12;97559.19;;;4.38;84.39
75617;BME280;64200;55.426;37.758;2023-12-20T02:37:13;97561.28;;;4.44;84.54
75617;BME280;64200;55.426;37.758;2023-12-20T02:42:13;97552.50;;;4.30;85.09
75617;BME280;64200;55.426;37.758;2023-12-20T02:47:14;97557.94;;;4.39;84.91
75617;BME280;64200;55.426;37.758;2023-12-20T02:52:14;97564.28;;;4.16;85.79
75617;BME280;64200;55.426;37.758;2023-12-20T02:57:15;97564.50;;;4.42;84.61
75617;BME280;64200;55.426;37.758;2023-12-20T03:02:15;97566.53;;;4.56;84.58
75617;BME280;64200;55.426;37.758;2023-12-20T03:07:15;97565.38;;;4.48;84.49
75617;BME280;64200;55.426;37.758;2023-12-20T03:12:16;97575.47;;;4.51;83.85
75617;BME280;64200;55.426;37.758;2023-12-20T03:17:16;97566.63;;;4.62;84.04
75617;BME280;64200;55.426;37.758;2023-12-20T03:22:17;97553.56;;;4.63;84.68
75617;BME280;64200;55.426;37.758;2023-12-20T03:27:17;97556.78;;;4.16;85.19
75617;BME280;64200;55.426;37.758;2023-12-20T03:32:18;97561.34;;;4.04;86.02
75617;BME280;64200;55.426;37.758;2023-12-20T03:37:18;97565.53;;;4.15;85.58
75617;BME280;64200;55.426;37.758;2023-12-20T03:42:19;97560.09;;;4.05;86.26
75617;BME280;64200;55.426;37.758;2023-12-20T03:47:19;97551.25;;;4.01;86.34
75617;BME280;64200;55.426;37.758;2023-12-20T03:52:20;97560.75;;;4.00;86.53
75617;BME280;64200;55.426;37.758;2023-12-20T03:57:20;97558.59;;;4.04;86.24
75617;BME280;64200;55.426;37.758;2023-12-20T04:02:21;97560.88;;;4.21;86.17
75617;BME280;64200;55.426;37.758;2023-12-20T04:07:21;97556.22;;;4.12;86.02
75617;BME280;64200;55.426;37.758;2023-12-20T04:12:22;97558.72;;;4.25;86.04
75617;BME280;64200;55.426;37.758;2023-12-20T04:17:22;97569.56;;;4.29;84.22
75617;BME280;64200;55.426;37.758;2023-12-20T04:22:23;97567.38;;;4.33;84.23
75617;BME280;64200;55.426;37.758;2023-12-20T04:27:23;97573.66;;;4.48;83.91
75617;BME280;64200;55.426;37.758;2023-12-20T04:32:24;97581.19;;;4.48;82.88
75617;BME280;64200;55.426;37.758;2023-12-20T04:37:24;97577.00;;;4.52;82.95
75617;BME280;64200;55.426;37.758;2023-12-20T04:42:25;97583.66;;;4.61;82.31
75617;BME280;64200;55.426;37.758;2023-12-20T04:47:25;97584.69;;;4.63;81.95
75617;BME280;64200;55.426;37.758;2023-12-20T04:52:26;97594.78;;;4.51;82.75
75617;BME280;64200;55.426;37.758;2023-12-20T04:57:26;97594.59;;;4.55;82.47
75617;BME280;64200;55.426;37.758;2023-12-20T05:02:27;97600.22;;;4.61;81.48
75617;BME280;64200;55.426;37.758;2023-12-20T05:07:27;97596.91;;;4.56;82.25
75617;BME280;64200;55.426;37.758;2023-12-20T05:12:28;97595.44;;;4.31;82.69
75617;BME280;64200;55.426;37.758;2023-12-20T05:17:29;97596.22;;;4.47;82.12
75617;BME280;64200;55.426;37.758;2023-12-20T05:22:29;97597.41;;;4.16;82.67
75617;BME280;64200;55.426;37.758;2023-12-20T05:27:30;97614.19;;;4.27;83.11
75617;BME280;64200;55.426;37.758;2023-12-20T05:32:30;97605.69;;;4.16;83.09
75617;BME280;64200;55.426;37.758;2023-12-20T05:37:31;97622.44;;;4.12;83.28
75617;BME280;64200;55.426;37.758;2023-12-20T05:42:31;97632.91;;;4.23;82.68
75617;BME280;64200;55.426;37.758;2023-12-20T05:47:32;97634.28;;;4.43;81.85
75617;BME280;64200;55.426;37.758;2023-12-20T05:52:32;97637.72;;;4.37;81.50
75617;BME280;64200;55.426;37.758;2023-12-20T05:57:33;97617.69;;;4.28;81.73
75617;BME280;64200;55.426;37.758;2023-12-20T06:02:35;97635.19;;;4.25;81.78
75617;BME280;64200;55.426;37.758;2023-12-20T06:07:37;97611.22;;;4.31;81.51
75617;BME280;64200;55.426;37.758;2023-12-20T06:12:37;97622.31;;;4.07;82.87
75617;BME280;64200;55.426;37.758;2023-12-20T06:17:38;97622.75;;;4.29;82.17
75617;BME280;64200;55.426;37.758;2023-12-20T06:22:39;97639.50;;;4.26;82.18
75617;BME280;64200;55.426;37.758;2023-12-20T06:27:39;97623.19;;;4.13;82.49
75617;BME280;64200;55.426;37.758;2023-12-20T06:32:41;97625.81;;;4.46;80.93
75617;BME280;64200;55.426;37.758;2023-12-20T06:37:42;97626.22;;;4.54;79.83
75617;BME280;64200;55.426;37.758;2023-12-20T06:42:43;97632.59;;;4.75;78.65
75617;BME280;64200;55.426;37.758;2023-12-20T06:47:44;97624.13;;;4.64;79.43
75617;BME280;64200;55.426;37.758;2023-12-20T06:52:44;97630.13;;;4.47;80.17
75617;BME280;64200;55.426;37.758;2023-12-20T06:57:45;97644.78;;;4.53;80.39
75617;BME280;64200;55.426;37.758;2023-12-20T07:02:45;97623.94;;;4.52;81.09
75617;BME280;64200;55.426;37.758;2023-12-20T07:07:47;97643.56;;;4.69;80.75
75617;BME280;64200;55.426;37.758;2023-12-20T07:12:48;97651.97;;;4.36;80.94
75617;BME280;64200;55.426;37.758;2023-12-20T07:17:49;97651.81;;;4.54;80.39
75617;BME280;64200;55.426;37.758;2023-12-20T07:22:49;97645.53;;;4.54;80.83
75617;BME280;64200;55.426;37.758;2023-12-20T07:27:50;97652.00;;;4.51;81.39
75617;BME280;64200;55.426;37.758;2023-12-20T07:32:51;97653.19;;;4.74;79.75
75617;BME280;64200;55.426;37.758;2023-12-20T07:37:52;97654.19;;;4.47;80.95
75617;BME280;64200;55.426;37.758;2023-12-20T07:42:53;97665.81;;;4.51;81.25
75617;BME280;64200;55.426;37.758;2023-12-20T07:47:53;97673.94;;;4.69;80.73
75617;BME280;64200;55.426;37.758;2023-12-20T07:52:54;97670.97;;;4.73;80.34
75617;BME280;64200;55.426;37.758;2023-12-20T07:57:55;97668.81;;;4.77;80.30
75617;BME280;64200;55.426;37.758;2023-12-20T08:02:55;97677.75;;;4.87;79.11
75617;BME280;64200;55.426;37.758;2023-12-20T08:07:56;97665.47;;;4.88;79.45
75617;BME280;64200;55.426;37.758;2023-12-20T08:12:58;97677.63;;;4.66;79.59
75617;BME280;64200;55.426;37.758;2023-12-20T08:17:58;97661.66;;;5.00;79.15
75617;BME280;64200;55.426;37.758;2023-12-20T08:22:59;97673.47;;;5.01;78.30
75617;BME280;64200;55.426;37.758;2023-12-20T08:27:59;97656.13;;;5.15;78.95
75617;BME280;64200;55.426;37.758;2023-12-20T08:33:00;97655.56;;;4.96;78.64
75617;BME280;64200;55.426;37.758;2023-12-20T08:38:01;97638.53;;;4.83;79.58
75617;BME280;64200;55.426;37.758;2023-12-20T08:43:01;97651.72;;;5.23;78.70
75617;BME280;64200;55.426;37.758;2023-12-20T08:48:02;97655.94;;;5.04;79.46
75617;BME280;64200;55.426;37.758;2023-12-20T08:53:03;97652.13;;;4.86;79.85
75617;BME280;64200;55.426;37.758;2023-12-20T08:58:04;97652.22;;;5.07;79.00
75617;BME280;64200;55.426;37.758;2023-12-20T09:03:07;97650.66;;;5.21;79.43
75617;BME280;64200;55.426;37.758;2023-12-20T09:08:07;97634.88;;;5.21;79.61
75617;BME280;64200;55.426;37.758;2023-12-20T09:13:10;97655.25;;;5.09;79.77
75617;BME280;64200;55.426;37.758;2023-12-20T09:18:10;97627.69;;;5.30;78.43
75617;BME280;64200;55.426;37.758;2023-12-20T09:23:11;97649.34;;;5.01;79.24
75617;BME280;64200;55.426;37.758;2023-12-20T09:28:12;97656.03;;;5.09;78.73
75617;BME280;64200;55.426;37.758;2023-12-20T09:33:12;97644.44;;;5.41;77.93
75617;BME280;64200;55.426;37.758;2023-12-20T09:38:13;97659.91;;;5.18;78.32
75617;BME280;64200;55.426;37.758;2023-12-20T09:43:19;97661.34;;;5.28;77.85
75617;BME280;64200;55.426;37.758;2023-12-20T09:48:20;97655.66;;;5.17;77.64
75617;BME280;64200;55.426;37.758;2023-12-20T09:53:21;97650.19;;;5.22;78.19
75617;BME280;64200;55.426;37.758;2023-12-20T09:58:23;97659.56;;;4.80;79.11
75617;BME280;64200;55.426;37.758;2023-12-20T10:03:25;97647.81;;;5.00;79.22
75617;BME280;64200;55.426;37.758;2023-12-20T10:08:26;97660.97;;;4.61;80.78
75617;BME280;64200;55.426;37.758;2023-12-20T10:13:27;97656.22;;;4.61;80.61
75617;BME280;64200;55.426;37.758;2023-12-20T10:18:29;97655.38;;;4.70;80.27
75617;BME280;64200;55.426;37.758;2023-12-20T10:23:30;97650.47;;;4.50;81.35
75617;BME280;64200;55.426;37.758;2023-12-20T10:28:34;97654.41;;;4.58;81.41
75617;BME280;64200;55.426;37.758;2023-12-20T10:33:34;97641.53;;;4.55;81.59
75617;BME280;64200;55.426;37.758;2023-12-20T10:38:37;97655.75;;;4.78;80.19
75617;BME280;64200;55.426;37.758;2023-12-20T10:43:39;97665.16;;;4.56;81.57
75617;BME280;64200;55.426;37.758;2023-12-20T10:48:41;97645.84;;;4.71;80.94
75617;BME280;64200;55.426;37.758;2023-12-20T10:53:42;97655.47;;;4.75;80.24
75617;BME280;64200;55.426;37.758;2023-12-20T10:58:45;97637.47;;;4.80;80.58
75617;BME280;64200;55.426;37.758;2023-12-20T11:03:51;97650.88;;;5.02;79.59
75617;BME280;64200;55.426;37.758;2023-12-20T11:09:01;97648.88;;;4.88;80.37
75617;BME280;64200;55.426;37.758;2023-12-20T11:14:34;97648.97;;;4.64;81.09
75617;BME280;64200;55.426;37.758;2023-12-20T11:25:06;97654.88;;;4.56;82.53
75617;BME280;64200;55.426;37.758;2023-12-20T11:30:11;97651.63;;;4.43;82.66
75617;BME280;64200;55.426;37.758;2023-12-20T11:40:15;97657.06;;;4.52;82.08
75617;BME280;64200;55.426;37.758;2023-12-20T11:45:18;97656.59;;;4.69;81.74
75617;BME280;64200;55.426;37.758;2023-12-20T11:50:20;97661.94;;;5.02;80.02
75617;BME280;64200;55.426;37.758;2023-12-20T11:55:22;97664.69;;;4.57;81.63
75617;BME280;64200;55.426;37.758;2023-12-20T12:00:24;97665.66;;;4.99;81.17
75617;BME280;64200;55.426;37.758;2023-12-20T12:05:25;97669.53;;;4.48;81.71
75617;BME280;64200;55.426;37.758;2023-12-20T12:10:26;97654.97;;;4.62;81.07
75617;BME280;64200;55.426;37.758;2023-12-20T12:15:26;97664.75;;;4.48;81.58
75617;BME280;64200;55.426;37.758;2023-12-20T12:20:27;97675.91;;;4.54;82.33
75617;BME280;64200;55.426;37.758;2023-12-20T12:25:29;97681.00;;;4.31;82.55
75617;BME280;64200;55.426;37.758;2023-12-20T12:30:30;97684.13;;;4.78;80.53
75617;BME280;64200;55.426;37.758;2023-12-20T12:35:31;97688.66;;;4.51;81.46
75617;BME280;64200;55.426;37.758;2023-12-20T12:40:34;97691.84;;;4.35;82.45
75617;BME280;64200;55.426;37.758;2023-12-20T12:45:36;97682.75;;;4.44;82.06
75617;BME280;64200;55.426;37.758;2023-12-20T12:50:36;97675.97;;;4.30;81.49
75617;BME280;64200;55.426;37.758;2023-12-20T12:55:37;97685.94;;;4.27;82.27
75617;BME280;64200;55.426;37.758;2023-12-20T13:00:37;97679.72;;;4.17;82.16
75617;BME280;64200;55.426;37.758;2023-12-20T13:05:38;97685.59;;;4.34;81.68
75617;BME280;64200;55.426;37.758;2023-12-20T13:10:38;97690.34;;;4.34;81.60
75617;BME280;64200;55.426;37.758;2023-12-20T13:15:39;97685.50;;;4.44;81.58
75617;BME280;64200;55.426;37.758;2023-12-20T13:20:40;97686.03;;;4.72;79.78
75617;BME280;64200;55.426;37.758;2023-12-20T13:25:41;97693.81;;;4.73;80.19
75617;BME280;64200;55.426;37.758;2023-12-20T13:30:42;97707.44;;;4.62;80.13
75617;BME280;64200;55.426;37.758;2023-12-20T13:35:42;97714.19;;;4.61;80.14
75617;BME280;64200;55.426;37.758;2023-12-20T13:40:43;97709.38;;;4.71;79.61
75617;BME280;64200;55.426;37.758;2023-12-20T13:45:43;97726.91;;;4.83;79.46
75617;BME280;64200;55.426;37.758;2023-12-20T13:50:44;97730.19;;;4.57;79.56
75617;BME280;64200;55.426;37.758;2023-12-20T13:55:44;97742.16;;;4.93;79.09
75617;BME280;64200;55.426;37.758;2023-12-20T14:00:45;97744.53;;;4.85;78.25
75617;BME280;64200;55.426;37.758;2023-12-20T14:05:45;97755.34;;;4.59;78.70
75617;BME280;64200;55.426;37.758;2023-12-20T14:10:46;97745.78;;;4.84;78.00
75617;BME280;64200;55.426;37.758;2023-12-20T14:15:46;97756.31;;;4.71;78.47
75617;BME280;64200;55.426;37.758;2023-12-20T14:20:49;97749.59;;;5.02;77.39
75617;BME280;64200;55.426;37.758;2023-12-20T14:25:50;97753.38;;;4.89;77.24
75617;BME280;64200;55.426;37.758;2023-12-20T14:30:51;97751.78;;;4.83;77.87
75617;BME280;64200;55.426;37.758;2023-12-20T14:35:52;97746.28;;;4.58;78.34
75617;BME280;64200;55.426;37.758;2023-12-20T14:40:53;97744.03;;;4.72;78.55
75617;BME280;64200;55.426;37.758;2023-12-20T14:45:53;97745.31;;;4.62;79.17
75617;BME280;64200;55.426;37.758;2023-12-20T14:50:54;97740.16;;;4.54;78.74
75617;BME280;64200;55.426;37.758;2023-12-20T14:55:54;97727.66;;;4.68;78.51
75617;BME280;64200;55.426;37.758;2023-12-20T15:00:55;97723.19;;;4.71;78.98
75617;BME280;64200;55.426;37.758;2023-12-20T15:05:59;97723.16;;;4.56;79.43
75617;BME280;64200;55.426;37.758;2023-12-20T15:11:00;97726.31;;;4.39;79.71
75617;BME280;64200;55.426;37.758;2023-12-20T15:16:01;97722.63;;;4.18;81.16
75617;BME280;64200;55.426;37.758;2023-12-20T15:21:02;97723.16;;;4.32;81.13
75617;BME280;64200;55.426;37.758;2023-12-20T15:26:03;97721.97;;;4.48;80.25
75617;BME280;64200;55.426;37.758;2023-12-20T15:31:04;97713.50;;;4.51;79.87
75617;BME280;64200;55.426;37.758;2023-12-20T15:36:05;97720.72;;;4.34;80.85
75617;BME280;64200;55.426;37.758;2023-12-20T15:41:06;97735.94;;;4.68;79.95
75617;BME280;64200;55.426;37.758;2023-12-20T15:46:09;97748.03;;;4.71;79.11
75617;BME280;64200;55.426;37.758;2023-12-20T15:51:10;97744.22;;;4.68;78.96
75617;BME280;64200;55.426;37.758;2023-12-20T15:56:10;97754.06;;;4.84;78.49
75617;BME280;64200;55.426;37.758;2023-12-20T16:01:11;97764.28;;;4.93;78.02
75617;BME280;64200;55.426;37.758;2023-12-20T16:06:12;97769.03;;;4.92;78.30
75617;BME280;64200;55.426;37.758;2023-12-20T16:11:13;97780.88;;;5.08;77.53
75617;BME280;64200;55.426;37.758;2023-12-20T16:16:13;97771.75;;;4.78;77.99
75617;BME280;64200;55.426;37.758;2023-12-20T16:21:14;97763.59;;;4.98;76.95
75617;BME280;64200;55.426;37.758;2023-12-20T16:26:14;97777.19;;;4.87;77.79
75617;BME280;64200;55.426;37.758;2023-12-20T16:31:15;97779.88;;;4.57;79.06
75617;BME280;64200;55.426;37.758;2023-12-20T16:36:15;97785.91;;;4.95;77.80
75617;BME280;64200;55.426;37.758;2023-12-20T16:41:16;97785.13;;;5.09;77.06
75617;BME280;64200;55.426;37.758;2023-12-20T16:46:16;97788.84;;;5.06;77.12
75617;BME280;64200;55.426;37.758;2023-12-20T16:51:17;97794.59;;;4.78;77.44
75617;BME280;64200;55.426;37.758;2023-12-20T16:56:17;97789.06;;;4.78;76.97
75617;BME280;64200;55.426;37.758;2023-12-20T17:01:18;97808.38;;;4.63;77.40
75617;BME280;64200;55.426;37.758;2023-12-20T17:06:19;97810.72;;;4.31;79.11
75617;BME280;64200;55.426;37.758;2023-12-20T17:11:20;97811.31;;;4.60;78.50
75617;BME280;64200;55.426;37.758;2023-12-20T17:16:23;97817.84;;;4.71;77.28
75617;BME280;64200;55.426;37.758;2023-12-20T17:21:24;97811.84;;;4.73;77.56
75617;BME280;64200;55.426;37.758;2023-12-20T17:26:24;97796.56;;;4.63;78.14
75617;BME280;64200;55.426;37.758;2023-12-20T17:31:25;97794.34;;;4.52;78.93
75617;BME280;64200;55.426;37.758;2023-12-20T17:36:26;97792.94;;;4.56;78.77
75617;BME280;64200;55.426;37.758;2023-12-20T17:41:26;97791.63;;;4.67;78.46
75617;BME280;64200;55.426;37.758;2023-12-20T17:46:27;97786.41;;;4.45;78.72
75617;BME280;64200;55.426;37.758;2023-12-20T17:51:27;97784.19;;;4.34;78.82
75617;BME280;64200;55.426;37.758;2023-12-20T17:56:28;97786.00;;;4.37;79.20
75617;BME280;64200;55.426;37.758;2023-12-20T18:01:29;97786.75;;;4.37;79.27
75617;BME280;64200;55.426;37.758;2023-12-20T18:06:30;97785.34;;;4.42;79.38
75617;BME280;64200;55.426;37.758;2023-12-20T18:11:30;97779.94;;;4.48;78.72
75617;BME280;64200;55.426;37.758;2023-12-20T18:16:31;97776.78;;;4.40;78.62
75617;BME280;64200;55.426;37.758;2023-12-20T18:21:31;97774.91;;;4.46;78.15
75617;BME280;64200;55.426;37.758;2023-12-20T18:26:32;97786.19;;;4.57;78.04
75617;BME280;64200;55.426;37.758;2023-12-20T18:31:35;97777.41;;;4.35;78.31
75617;BME280;64200;55.426;37.758;2023-12-20T18:36:36;97793.28;;;4.49;78.39
75617;BME280;64200;55.426;37.758;2023-12-20T18:41:36;97791.09;;;4.29;78.83
75617;BME280;64200;55.426;37.758;2023-12-20T18:46:37;97786.28;;;4.15;79.44
75617;BME280;64200;55.426;37.758;2023-12-20T18:51:38;97796.28;;;4.36;78.96
75617;BME280;64200;55.426;37.758;2023-12-20T18:56:38;97794.28;;;4.37;78.38
75617;BME280;64200;55.426;37.758;2023-12-20T19:01:40;97798.97;;;4.21;79.13
75617;BME280;64200;55.426;37.758;2023-12-20T19:06:41;97784.97;;;4.01;80.09
75617;BME280;64200;55.426;37.758;2023-12-20T19:11:42;97784.97;;;4.01;79.83
75617;BME280;64200;55.426;37.758;2023-12-20T19:16:42;97791.81;;;4.39;79.13
75617;BME280;64200;55.426;37.758;2023-12-20T19:21:43;97788.72;;;4.22;78.97
75617;BME280;64200;55.426;37.758;2023-12-20T19:26:43;97790.34;;;4.29;78.77
75617;BME280;64200;55.426;37.758;2023-12-20T19:31:44;97795.81;;;4.38;78.45
75617;BME280;64200;55.426;37.758;2023-12-20T19:36:47;97794.31;;;4.28;78.46
75617;BME280;64200;55.426;37.758;2023-12-20T19:41:47;97793.84;;;4.29;78.72
75617;BME280;64200;55.426;37.758;2023-12-20T19:46:47;97798.22;;;4.21;78.93
75617;BME280;64200;55.426;37.758;2023-12-20T19:51:49;97784.84;;;3.95;79.72
75617;BME280;64200;55.426;37.758;2023-12-20T19:56:50;97786.16;;;4.09;79.24
75617;BME280;64200;55.426;37.758;2023-12-20T20:01:50;97788.75;;;4.13;79.60
75617;BME280;64200;55.426;37.758;2023-12-20T20:06:51;97788.59;;;4.07;79.28
75617;BME280;64200;55.426;37.758;2023-12-20T20:11:52;97798.72;;;4.10;79.04
75617;BME280;64200;55.426;37.758;2023-12-20T20:16:53;97783.59;;;3.96;80.02
75617;BME280;64200;55.426;37.758;2023-12-20T20:21:54;97778.34;;;4.32;79.20
75617;BME280;64200;55.426;37.758;2023-12-20T20:26:58;97764.22;;;4.39;78.80
75617;BME280;64200;55.426;37.758;2023-12-20T20:31:58;97779.13;;;4.56;78.11
75617;BME280;64200;55.426;37.758;2023-12-20T20:36:59;97758.06;;;4.44;78.37
75617;BME280;64200;55.426;37.758;2023-12-20T20:42:00;97748.19;;;4.28;78.62
75617;BME280;64200;55.426;37.758;2023-12-20T20:47:01;97743.72;;;4.55;78.53
75617;BME280;64200;55.426;37.758;2023-12-20T20:52:01;97758.56;;;4.57;77.45
75617;BME280;64200;55.426;37.758;2023-12-20T20:57:02;97746.47;;;4.31;78.11
75617;BME280;64200;55.426;37.758;2023-12-20T21:02:03;97744.09;;;4.63;77.66
75617;BME280;64200;55.426;37.758;2023-12-20T21:07:04;97727.91;;;4.70;77.31
75617;BME280;64200;55.426;37.758;2023-12-20T21:12:05;97695.94;;;4.79;77.16
75617;BME280;64200;55.426;37.758;2023-12-20T21:17:05;97694.53;;;4.83;76.61
75617;BME280;64200;55.426;37.758;2023-12-20T21:22:06;97674.22;;;4.71;77.54
75617;BME280;64200;55.426;37.758;2023-12-20T21:27:06;97676.97;;;4.71;77.02
75617;BME280;64200;55.426;37.758;2023-12-20T21:32:10;97670.03;;;4.76;77.15
75617;BME280;64200;55.426;37.758;2023-12-20T21:37:12;97650.31;;;4.68;77.24
75617;BME280;64200;55.426;37.758;2023-12-20T21:42:12;97651.66;;;4.73;76.77
75617;BME280;64200;55.426;37.758;2023-12-20T21:47:13;97632.53;;;4.69;77.36
75617;BME280;64200;55.426;37.758;2023-12-20T21:52:13;97622.88;;;4.65;77.03
75617;BME280;64200;55.426;37.758;2023-12-20T21:57:15;97615.06;;;4.48;77.74
75617;BME280;64200;55.426;37.758;2023-12-20T22:02:15;97601.16;;;4.43;77.72
75617;BME280;64200;55.426;37.758;2023-12-20T22:07:16;97582.94;;;4.06;79.38
75617;BME280;64200;55.426;37.758;2023-12-20T22:12:16;97579.28;;;3.85;79.50
75617;BME280;64200;55.426;37.758;2023-12-20T22:17:17;97582.72;;;3.95;79.43
75617;BME280;64200;55.426;37.758;2023-12-20T22:22:17;97557.94;;;4.25;78.71
75617;BME280;64200;55.426;37.758;2023-12-20T22:27:18;97552.97;;;3.99;79.13
75617;BME280;64200;55.426;37.758;2023-12-20T22:32:19;97540.97;;;4.02;79.45
75617;BME280;64200;55.426;37.758;2023-12-20T22:37:20;97529.44;;;3.89;80.63
75617;BME280;64200;55.426;37.758;2023-12-20T22:42:21;97533.66;;;3.99;80.25
75617;BME280;64200;55.426;37.758;2023-12-20T22:47:22;97515.09;;;3.99;79.48
75617;BME280;64200;55.426;37.758;2023-12-20T22:52:23;97517.28;;;3.56;80.86
75617;BME280;64200;55.426;37.758;2023-12-20T22:57:24;97508.50;;;3.82;79.72
75617;BME280;64200;55.426;37.758;2023-12-20T23:02:25;97505.94;;;3.78;79.45
75617;BME280;64200;55.426;37.758;2023-12-20T23:07:26;97506.25;;;3.56;79.00
75617;BME280;64200;55.426;37.758;2023-12-20T23:12:26;97510.06;;;3.59;79.46
75617;BME280;64200;55.426;37.758;2023-12-20T23:17:27;97512.00;;;3.43;79.27
75617;BME280;64200;55.426;37.758;2023-12-20T23:22:27;97508.84;;;3.60;78.50
75617;BME280;64200;55.426;37.758;2023-12-20T23:27:28;97489.41;;;3.39;78.59
75617;BME280;64200;55.426;37.758;2023-12-20T23:32:28;97484.34;;;3.13;79.05
75617;BME280;64200;55.426;37.758;2023-12-20T23:37:29;97485.88;;;3.39;78.20
75617;BME280;64200;55.426;37.758;2023-12-20T23:42:30;97477.19;;;3.31;78.32
75617;BME280;64200;55.426;37.758;2023-12-20T23:47:30;97473.19;;;3.17;77.95
75617;BME280;64200;55.426;37.758;2023-12-20T23:52:31;97459.56;;;3.13;77.73
75617;BME280;64200;55.426;37.758;2023-12-20T23:57:31;97451.94;;;2.84;79.21
